Página principal
METAR-TAF:

METAR-TAF

Aeroportos :

Alice Springs, Austrália

latitude: 23-48S, longitude: 133-53E, altura: 545 m

Observação actual do tempo

O boletim foi feito há 18 minutos, às 22:00 UTC
Vento 7 kt de es-nordeste
Temperatura 29°C
Humidade 22%
Pressão 1010 hPa
Visibilidade 10 km ou mais

METAR: YBAS 162200Z AUTO 07007KT 9999 // NCD 29/05 Q1010

Hora: 07:48 (22:18 UTC)

Previsão

O boletim foi feito há 5 horas e 3 minutos, às 17:15 UTC
Previsão válida de 16 às 18 UTC a 17 às 18 UTC
Vento 11 kt de es-nordeste
Visibilidade 10 km ou mais
sem nuvens abaixo de 1500 metros e sem cumulonimbus
A partir de 17 às 0900 UTC
Vento 10 kt de este
Visibilidade 10 km ou mais
sem nuvens abaixo de 1500 metros e sem cumulonimbus

TAF: YBAS 161715Z 1618/1718 06011KT CAVOK FM170900 10010KT CAVOK

Observações e previsões do tempo de mais de 4000 aeroportos (mensagens METAR e TAF).

As estações disponíveis são os pontos amarelos e vermelhos sobre o mapa.

Mova o rato sobre o mapa para ver o nome da estação.

Depois clique no ponto para visualizar as observações e previsões meteorológicas.

Para alterar o mapa : clique nos botões verdes com uma cruz preta para aumentar o zoom; no botão verde com uma pitada de zoom; ou nas setas verdes para mapas adjacentes.


METAR-TAF: